Time;durP1;ratioP1;P1;durP2;ratioP2;P2;SDS_P1;SDS_P2;PMS_P1;PMS_P2;Temp;Humidity;BMP_temperature;BMP_pressure;BME280_temperature;BME280_humidity;BME280_pressure;Samples;Min_cycle;Max_cycle;Signal;HPM_P1;HPM_P2
2021/06/06 00:01:40;;;;;;;0.90;0.73;;;24.30;41.00;;;;;;4970232;28;20207;-54
2021/06/06 00:04:06;;;;;;;0.70;0.70;;;24.30;41.00;;;;;;4974729;28;20291;-53
2021/06/06 00:06:32;;;;;;;0.98;0.90;;;24.30;41.00;;;;;;4970941;28;20205;-53
2021/06/06 00:08:58;;;;;;;0.70;0.70;;;24.30;41.00;;;;;;4971609;28;20235;-55
2021/06/06 00:11:24;;;;;;;0.80;0.80;;;24.30;40.90;;;;;;4973348;28;20216;-57
2021/06/06 00:13:50;;;;;;;2.63;1.00;;;24.30;41.00;;;;;;4984491;28;20193;-59
2021/06/06 00:16:16;;;;;;;0.90;0.90;;;24.30;41.00;;;;;;4983266;28;20204;-53
2021/06/06 00:18:42;;;;;;;0.70;0.70;;;24.30;41.00;;;;;;4990746;28;20207;-57
2021/06/06 00:21:08;;;;;;;0.90;0.90;;;24.30;41.10;;;;;;4982928;28;20203;-57
2021/06/06 00:23:34;;;;;;;0.82;0.73;;;24.30;41.00;;;;;;4972868;28;20208;-52
2021/06/06 00:26:00;;;;;;;0.70;0.70;;;24.30;41.00;;;;;;4972506;28;20248;-57
2021/06/06 00:28:26;;;;;;;0.80;0.80;;;24.30;40.90;;;;;;4987817;28;20232;-51
2021/06/06 00:30:52;;;;;;;0.90;0.73;;;24.30;40.90;;;;;;4974942;28;20260;-58
2021/06/06 00:33:18;;;;;;;0.82;0.82;;;24.30;41.00;;;;;;4985979;28;20212;-59
2021/06/06 00:35:44;;;;;;;0.80;0.80;;;24.30;41.00;;;;;;4975083;28;20200;-55
2021/06/06 00:38:10;;;;;;;1.38;0.80;;;24.30;41.00;;;;;;4975194;28;20227;-58
2021/06/06 00:40:37;;;;;;;0.93;0.75;;;24.30;40.90;;;;;;4973873;28;20224;-56
2021/06/06 00:43:03;;;;;;;0.85;0.70;;;24.30;41.00;;;;;;4973556;28;20215;-55
2021/06/06 00:45:29;;;;;;;0.68;0.68;;;24.30;41.00;;;;;;4982249;28;20221;-56
2021/06/06 00:47:55;;;;;;;0.90;0.85;;;24.30;41.00;;;;;;4978624;28;20203;-55
2021/06/06 00:50:21;;;;;;;1.25;1.10;;;24.30;41.10;;;;;;4978606;28;20813;-49
2021/06/06 00:52:47;;;;;;;0.65;0.65;;;24.30;41.00;;;;;;4974230;28;20205;-57
2021/06/06 00:55:13;;;;;;;0.80;0.80;;;24.30;41.00;;;;;;4980170;28;20667;-57
2021/06/06 00:57:39;;;;;;;0.70;0.70;;;24.30;40.90;;;;;;4980343;28;20196;-56
2021/06/06 01:00:05;;;;;;;0.70;0.70;;;24.30;40.90;;;;;;4976872;28;20227;-57
2021/06/06 01:02:31;;;;;;;1.67;0.80;;;24.30;41.00;;;;;;4980550;28;20669;-58
2021/06/06 01:04:57;;;;;;;0.60;0.60;;;24.30;41.00;;;;;;4976521;28;20196;-60
2021/06/06 01:07:23;;;;;;;1.67;1.10;;;24.30;41.00;;;;;;4983997;28;20581;-60
2021/06/06 01:09:49;;;;;;;1.02;0.80;;;24.30;41.00;;;;;;4974100;28;20249;-56
2021/06/06 01:12:15;;;;;;;1.00;0.90;;;24.30;40.90;;;;;;4972779;28;20208;-51
2021/06/06 01:14:41;;;;;;;0.70;0.70;;;24.30;41.00;;;;;;4978843;28;20209;-56
2021/06/06 01:17:07;;;;;;;0.60;0.60;;;24.30;41.00;;;;;;4973923;28;20212;-57
2021/06/06 01:19:33;;;;;;;0.88;0.73;;;24.30;40.90;;;;;;4980911;28;20224;-51
2021/06/06 01:21:59;;;;;;;2.15;0.88;;;24.30;40.90;;;;;;4985137;28;20235;-56
2021/06/06 01:24:25;;;;;;;0.82;0.82;;;24.30;40.90;;;;;;4972733;28;20208;-56
2021/06/06 01:26:51;;;;;;;1.13;0.70;;;24.30;41.10;;;;;;4981583;28;20871;-60
2021/06/06 01:29:17;;;;;;;0.73;0.73;;;24.30;41.00;;;;;;4973296;28;20328;-56
2021/06/06 01:31:43;;;;;;;0.82;0.75;;;24.30;41.00;;;;;;4973908;28;20208;-55
2021/06/06 01:34:09;;;;;;;0.70;0.70;;;24.30;41.00;;;;;;4987864;28;20200;-55
2021/06/06 01:36:35;;;;;;;0.73;0.73;;;24.30;41.00;;;;;;4987083;28;20260;-54
2021/06/06 01:39:01;;;;;;;0.80;0.80;;;24.30;41.00;;;;;;4980344;28;20227;-57
2021/06/06 01:41:27;;;;;;;1.08;0.80;;;24.30;41.60;;;;;;4975020;28;20209;-57
2021/06/06 01:43:53;;;;;;;0.60;0.60;;;24.30;41.00;;;;;;4973317;28;20665;-53
2021/06/06 01:46:19;;;;;;;0.93;0.80;;;24.30;41.00;;;;;;4972853;28;20204;-57
2021/06/06 01:48:45;;;;;;;1.25;0.80;;;24.30;41.10;;;;;;4972008;28;20243;-56
2021/06/06 01:51:11;;;;;;;2.05;0.90;;;24.30;41.00;;;;;;4970175;28;20736;-55
2021/06/06 01:53:37;;;;;;;1.05;0.88;;;24.30;41.10;;;;;;4968235;28;20201;-57
2021/06/06 01:56:03;;;;;;;1.23;0.73;;;24.30;41.20;;;;;;4976722;28;20259;-56
2021/06/06 01:58:29;;;;;;;0.90;0.90;;;24.30;41.20;;;;;;4976497;28;20658;-55
2021/06/06 02:00:55;;;;;;;1.88;1.15;;;24.30;41.20;;;;;;4988795;28;20200;-58
2021/06/06 02:03:21;;;;;;;0.77;0.77;;;24.30;41.10;;;;;;4982136;28;20213;-56
2021/06/06 02:05:47;;;;;;;0.70;0.70;;;24.30;41.10;;;;;;4973420;28;20201;-56
2021/06/06 02:08:13;;;;;;;0.80;0.80;;;24.30;41.10;;;;;;4971999;28;20228;-58
2021/06/06 02:10:39;;;;;;;0.90;0.90;;;24.30;41.20;;;;;;4978232;28;20305;-55
2021/06/06 02:13:05;;;;;;;0.90;0.80;;;24.30;41.20;;;;;;4972561;28;20209;-54
2021/06/06 02:15:31;;;;;;;1.15;0.80;;;24.30;41.30;;;;;;4972860;28;20213;-53
2021/06/06 02:17:57;;;;;;;0.93;0.75;;;24.30;41.50;;;;;;4973819;28;20692;-49
2021/06/06 02:20:23;;;;;;;0.90;0.90;;;24.30;41.20;;;;;;4975580;28;20215;-53
2021/06/06 02:22:49;;;;;;;0.80;0.80;;;24.30;41.30;;;;;;4972150;28;20208;-51
2021/06/06 02:25:15;;;;;;;0.70;0.70;;;24.30;41.30;;;;;;4972314;28;20207;-57
2021/06/06 02:27:41;;;;;;;1.00;0.90;;;24.30;41.30;;;;;;4971187;28;20830;-57
2021/06/06 02:30:07;;;;;;;0.80;0.80;;;24.30;41.30;;;;;;4973213;28;20290;-59
2021/06/06 02:32:33;;;;;;;0.90;0.90;;;24.30;41.20;;;;;;4982980;28;20199;-53
2021/06/06 02:34:59;;;;;;;0.70;0.70;;;24.30;41.20;;;;;;4974649;28;20255;-56
2021/06/06 02:37:25;;;;;;;0.82;0.80;;;24.30;41.30;;;;;;4976092;28;20735;-58
2021/06/06 02:39:51;;;;;;;0.73;0.70;;;24.30;41.20;;;;;;4986275;28;20220;-56
2021/06/06 02:42:17;;;;;;;0.68;0.60;;;24.30;41.30;;;;;;4971451;28;20208;-56
2021/06/06 02:44:43;;;;;;;1.33;0.88;;;24.30;41.20;;;;;;4970589;28;20213;-55
2021/06/06 02:47:10;;;;;;;0.73;0.70;;;24.30;41.30;;;;;;4970491;28;20205;-58
2021/06/06 02:49:36;;;;;;;0.70;0.70;;;24.30;41.30;;;;;;4972197;28;20616;-57
2021/06/06 02:52:02;;;;;;;1.63;0.82;;;24.30;41.30;;;;;;4976635;28;20207;-55
2021/06/06 02:54:28;;;;;;;1.00;1.00;;;24.30;41.30;;;;;;4970860;28;20201;-56
2021/06/06 02:56:54;;;;;;;1.05;0.80;;;24.30;41.30;;;;;;4991108;28;20280;-59
2021/06/06 02:59:20;;;;;;;2.28;1.10;;;24.30;41.30;;;;;;4983188;28;20228;-57
2021/06/06 03:01:46;;;;;;;0.88;0.65;;;24.30;41.30;;;;;;4975108;28;20259;-55
2021/06/06 03:04:12;;;;;;;1.10;0.80;;;24.30;41.10;;;;;;4970030;28;20683;-59
2021/06/06 03:06:38;;;;;;;1.15;0.80;;;24.30;41.20;;;;;;4972184;28;20201;-58
2021/06/06 03:09:04;;;;;;;0.70;0.70;;;24.30;41.50;;;;;;4970977;28;20595;-56
2021/06/06 03:11:30;;;;;;;0.70;0.70;;;24.30;41.80;;;;;;4979049;28;20207;-55
2021/06/06 03:13:56;;;;;;;1.40;1.30;;;24.30;41.90;;;;;;4978045;28;20490;-56
2021/06/06 03:16:22;;;;;;;0.82;0.65;;;24.30;41.80;;;;;;4970752;28;20204;-57
2021/06/06 03:18:48;;;;;;;1.15;0.80;;;24.30;41.70;;;;;;4974570;28;20255;-58
2021/06/06 03:21:17;;;;;;;1.42;0.80;;;24.30;41.80;;;;;;4983929;28;20665;-56
2021/06/06 03:23:43;;;;;;;0.98;0.98;;;24.30;41.80;;;;;;4970681;28;20367;-57
2021/06/06 03:26:08;;;;;;;0.80;0.80;;;24.30;41.80;;;;;;4969223;28;20205;-56
2021/06/06 03:28:34;;;;;;;0.70;0.70;;;24.30;41.80;;;;;;4971531;28;20228;-54
2021/06/06 03:31:00;;;;;;;1.63;0.65;;;24.30;41.80;;;;;;4977732;28;20414;-56
2021/06/06 03:33:26;;;;;;;2.25;0.77;;;24.20;41.70;;;;;;4971580;28;20216;-55
2021/06/06 03:35:52;;;;;;;0.90;0.90;;;24.20;41.70;;;;;;4970653;28;20208;-56
2021/06/06 03:38:18;;;;;;;1.27;0.80;;;24.30;41.70;;;;;;4971457;28;20228;-55
2021/06/06 03:40:44;;;;;;;1.40;0.70;;;24.30;41.60;;;;;;4981294;28;20204;-55
2021/06/06 03:43:10;;;;;;;0.80;0.80;;;24.30;41.70;;;;;;4971408;28;20201;-57
2021/06/06 03:45:36;;;;;;;0.88;0.82;;;24.30;41.60;;;;;;4971475;28;20275;-57
2021/06/06 03:48:02;;;;;;;1.20;1.10;;;24.30;41.80;;;;;;4969693;28;20232;-55
2021/06/06 03:50:28;;;;;;;1.85;0.65;;;24.20;41.50;;;;;;4958860;28;20240;-56
2021/06/06 03:52:54;;;;;;;0.77;0.77;;;24.20;41.60;;;;;;4977176;28;20203;-57
2021/06/06 03:55:20;;;;;;;1.50;0.70;;;24.20;41.50;;;;;;4974773;28;20567;-54
2021/06/06 03:57:46;;;;;;;0.70;0.70;;;24.20;41.60;;;;;;4975383;28;20235;-57
2021/06/06 04:00:14;;;;;;;1.13;1.00;;;24.20;41.50;;;;;;4983192;28;20204;-56
2021/06/06 04:02:40;;;;;;;0.70;0.70;;;24.20;41.60;;;;;;4967903;28;20665;-53
2021/06/06 04:05:06;;;;;;;0.70;0.70;;;24.20;41.50;;;;;;4982418;28;20204;-57
2021/06/06 04:07:32;;;;;;;0.70;0.70;;;24.30;41.50;;;;;;4987150;28;20200;-56
2021/06/06 04:10:00;;;;;;;0.95;0.80;;;24.20;41.50;;;;;;4974151;28;20279;-57
2021/06/06 04:12:26;;;;;;;0.70;0.70;;;24.20;41.50;;;;;;4992644;28;20564;-57
2021/06/06 04:14:52;;;;;;;1.27;0.90;;;24.30;41.60;;;;;;4974924;28;20212;-50
2021/06/06 04:17:18;;;;;;;0.77;0.77;;;24.20;41.40;;;;;;4975219;28;20211;-59
2021/06/06 04:19:44;;;;;;;1.08;0.80;;;24.30;41.50;;;;;;4974330;28;20224;-58
2021/06/06 04:22:10;;;;;;;0.70;0.70;;;24.20;41.50;;;;;;4978032;28;20208;-57
2021/06/06 04:24:36;;;;;;;1.00;0.80;;;24.20;41.50;;;;;;4976105;28;20629;-61
2021/06/06 04:27:02;;;;;;;0.80;0.80;;;24.30;41.50;;;;;;4973003;28;20218;-56
2021/06/06 04:29:28;;;;;;;0.88;0.82;;;24.20;41.40;;;;;;4983081;28;20606;-57
2021/06/06 04:31:54;;;;;;;0.70;0.70;;;24.20;41.30;;;;;;4982427;28;20196;-49
2021/06/06 04:34:20;;;;;;;0.60;0.60;;;24.20;41.40;;;;;;4983791;28;20200;-57
2021/06/06 04:36:49;;;;;;;0.73;0.73;;;24.20;41.30;;;;;;4992010;28;20215;-59
2021/06/06 04:39:15;;;;;;;0.77;0.77;;;24.20;41.40;;;;;;4994132;28;20219;-57
2021/06/06 04:41:41;;;;;;;0.98;0.70;;;24.30;41.60;;;;;;4977143;28;20235;-57
2021/06/06 04:44:07;;;;;;;0.80;0.80;;;24.20;41.50;;;;;;4982990;28;20236;-59
2021/06/06 04:46:33;;;;;;;0.80;0.80;;;24.20;41.40;;;;;;4973433;28;20201;-59
2021/06/06 04:48:59;;;;;;;1.00;0.80;;;24.20;41.50;;;;;;4974852;28;20573;-58
2021/06/06 04:51:25;;;;;;;1.65;0.95;;;24.20;41.50;;;;;;4972861;28;20208;-55
2021/06/06 04:53:51;;;;;;;1.00;0.73;;;24.20;41.50;;;;;;4991224;28;20267;-56
2021/06/06 04:56:17;;;;;;;0.80;0.80;;;24.20;41.50;;;;;;4971016;28;20519;-57
2021/06/06 04:58:43;;;;;;;1.17;0.95;;;24.20;41.40;;;;;;4972289;28;20224;-56
2021/06/06 05:01:09;;;;;;;5.90;0.80;;;24.20;41.30;;;;;;4979152;28;20210;-58
2021/06/06 05:03:35;;;;;;;0.70;0.70;;;24.20;41.40;;;;;;4979035;28;20564;-58
2021/06/06 05:06:01;;;;;;;1.23;0.63;;;24.20;41.40;;;;;;4972745;28;20260;-58
2021/06/06 05:08:27;;;;;;;1.15;1.05;;;24.20;41.40;;;;;;4987787;28;20226;-55
2021/06/06 05:10:53;;;;;;;0.70;0.70;;;24.20;41.50;;;;;;4979031;28;20267;-57
2021/06/06 05:13:19;;;;;;;0.80;0.75;;;24.20;41.40;;;;;;4980294;28;20208;-55
2021/06/06 05:15:45;;;;;;;2.30;0.85;;;24.20;41.50;;;;;;4986639;28;20200;-52
2021/06/06 05:18:12;;;;;;;0.70;0.70;;;24.20;41.40;;;;;;4981245;28;20228;-59
2021/06/06 05:20:38;;;;;;;0.85;0.85;;;24.20;41.30;;;;;;4974243;28;20215;-56
2021/06/06 05:23:04;;;;;;;0.75;0.73;;;24.20;41.40;;;;;;4976551;28;20211;-59
2021/06/06 05:25:30;;;;;;;0.70;0.70;;;24.20;41.30;;;;;;4981887;28;20612;-56
2021/06/06 05:27:56;;;;;;;0.88;0.65;;;24.20;41.40;;;;;;4992665;28;20227;-59
2021/06/06 05:30:22;;;;;;;1.58;1.25;;;24.20;41.40;;;;;;4982570;28;20232;-54
2021/06/06 05:32:48;;;;;;;0.82;0.82;;;24.20;41.40;;;;;;4992508;28;20303;-56
2021/06/06 05:35:14;;;;;;;0.90;0.80;;;24.20;41.40;;;;;;4981049;28;20201;-57
2021/06/06 05:37:40;;;;;;;0.70;0.70;;;24.20;41.30;;;;;;4964338;28;20201;-54
2021/06/06 05:40:06;;;;;;;0.77;0.75;;;24.20;41.30;;;;;;4977399;28;20255;-56
2021/06/06 05:42:32;;;;;;;0.70;0.70;;;24.20;41.40;;;;;;4977230;28;20656;-56
2021/06/06 05:44:58;;;;;;;0.85;0.73;;;24.20;41.40;;;;;;4993300;28;20204;-55
2021/06/06 05:47:24;;;;;;;0.93;0.90;;;24.20;41.30;;;;;;4986701;28;20211;-56
2021/06/06 05:49:50;;;;;;;1.02;0.90;;;24.20;41.40;;;;;;4991053;28;20224;-56
2021/06/06 05:52:16;;;;;;;0.80;0.80;;;24.20;41.40;;;;;;4977406;28;20201;-57
2021/06/06 05:54:42;;;;;;;0.82;0.82;;;24.20;41.40;;;;;;4979557;28;20207;-57
2021/06/06 05:57:08;;;;;;;1.20;0.80;;;24.20;41.40;;;;;;4972393;28;20554;-55
2021/06/06 05:59:33;;;;;;;0.60;0.60;;;24.20;41.30;;;;;;4982183;28;20231;-55
2021/06/06 06:01:59;;;;;;;1.10;0.80;;;24.20;41.30;;;;;;4989238;28;20688;-57
2021/06/06 06:04:25;;;;;;;1.05;0.80;;;24.30;41.30;;;;;;4982434;28;20235;-51
2021/06/06 06:06:51;;;;;;;0.82;0.82;;;24.20;41.40;;;;;;4976280;28;20572;-56
2021/06/06 06:09:17;;;;;;;0.80;0.80;;;24.20;41.30;;;;;;4983806;28;20227;-58
2021/06/06 06:11:43;;;;;;;1.00;0.90;;;24.20;41.30;;;;;;4987442;28;20254;-58
2021/06/06 06:14:09;;;;;;;0.75;0.70;;;24.20;41.30;;;;;;4984885;28;20205;-54
2021/06/06 06:16:37;;;;;;;0.70;0.70;;;24.20;41.30;;;;;;4980196;28;20205;-58
2021/06/06 06:19:03;;;;;;;0.80;0.80;;;24.20;41.30;;;;;;4973838;28;20228;-56
2021/06/06 06:21:29;;;;;;;0.85;0.85;;;24.20;41.30;;;;;;4987728;28;20200;-56
2021/06/06 06:23:55;;;;;;;0.90;0.80;;;24.20;41.30;;;;;;4970119;28;20201;-55
2021/06/06 06:26:20;;;;;;;0.77;0.70;;;24.20;41.20;;;;;;4973866;28;20226;-57
2021/06/06 06:28:46;;;;;;;0.70;0.70;;;24.20;41.20;;;;;;4967226;28;20233;-55
2021/06/06 06:31:12;;;;;;;0.82;0.80;;;24.20;41.30;;;;;;4972155;28;20201;-61
2021/06/06 06:33:38;;;;;;;0.80;0.80;;;24.20;41.20;;;;;;4971874;28;20197;-52
2021/06/06 06:36:04;;;;;;;1.15;0.95;;;24.20;41.30;;;;;;4972517;28;20604;-54
2021/06/06 06:38:30;;;;;;;0.77;0.77;;;24.20;41.30;;;;;;4972817;28;20229;-61
2021/06/06 06:40:56;;;;;;;0.70;0.70;;;24.20;41.30;;;;;;4971992;28;20208;-50
2021/06/06 06:43:22;;;;;;;0.73;0.73;;;24.20;41.30;;;;;;4969828;28;20208;-56
2021/06/06 06:45:48;;;;;;;0.85;0.85;;;24.20;41.20;;;;;;4971901;28;20220;-56
2021/06/06 06:48:14;;;;;;;0.80;0.80;;;24.20;41.30;;;;;;4976828;28;20310;-57
2021/06/06 06:50:40;;;;;;;0.85;0.80;;;24.20;41.20;;;;;;4990233;28;20234;-56
2021/06/06 06:53:06;;;;;;;0.80;0.80;;;24.20;41.30;;;;;;4971583;28;20204;-54
2021/06/06 06:55:32;;;;;;;1.55;1.00;;;24.20;41.30;;;;;;4970663;28;20619;-56
2021/06/06 06:57:58;;;;;;;0.90;0.90;;;24.20;41.20;;;;;;4970879;28;20267;-48
2021/06/06 07:00:24;;;;;;;0.93;0.80;;;24.20;41.20;;;;;;4971353;28;20234;-53
2021/06/06 07:02:50;;;;;;;0.70;0.70;;;24.20;41.20;;;;;;4972217;28;20571;-54
2021/06/06 07:05:16;;;;;;;0.70;0.70;;;24.20;41.20;;;;;;4972260;28;20210;-55
2021/06/06 07:07:42;;;;;;;0.98;0.70;;;24.20;41.30;;;;;;4970188;28;20589;-55
2021/06/06 07:10:09;;;;;;;1.02;0.80;;;24.20;41.30;;;;;;4971413;28;20259;-61
2021/06/06 07:12:35;;;;;;;0.98;0.88;;;24.20;41.10;;;;;;4970661;28;20208;-55
2021/06/06 07:15:01;;;;;;;1.35;0.60;;;24.20;41.30;;;;;;4971923;28;20200;-59
2021/06/06 07:17:27;;;;;;;1.00;0.88;;;24.20;41.20;;;;;;4970138;28;21998;-58
2021/06/06 07:19:53;;;;;;;0.68;0.68;;;24.20;41.10;;;;;;4975286;28;20192;-60
2021/06/06 07:22:19;;;;;;;1.15;0.70;;;24.20;41.20;;;;;;4973582;28;20220;-57
2021/06/06 07:24:46;;;;;;;0.90;0.90;;;24.20;41.20;;;;;;4973769;28;20203;-57
2021/06/06 07:27:12;;;;;;;1.05;0.80;;;24.20;41.20;;;;;;4974477;28;20230;-59
2021/06/06 07:29:38;;;;;;;0.73;0.73;;;24.20;41.20;;;;;;4969994;28;20300;-58
2021/06/06 07:32:04;;;;;;;0.82;0.82;;;24.20;41.10;;;;;;4990868;28;20208;-60
2021/06/06 07:34:30;;;;;;;2.10;0.70;;;24.20;41.10;;;;;;4976785;28;20596;-58
2021/06/06 07:36:56;;;;;;;0.70;0.70;;;24.20;41.10;;;;;;4987538;28;20294;-59
2021/06/06 07:39:22;;;;;;;0.85;0.80;;;24.20;41.20;;;;;;4977458;28;20204;-60
2021/06/06 07:41:48;;;;;;;0.80;0.80;;;24.20;41.10;;;;;;4989004;28;20345;-59
2021/06/06 07:44:15;;;;;;;0.90;0.90;;;24.20;41.10;;;;;;4977108;28;20204;-59
2021/06/06 07:46:41;;;;;;;0.73;0.73;;;24.20;41.20;;;;;;4970847;28;20216;-58
2021/06/06 07:49:07;;;;;;;1.05;0.73;;;24.20;41.10;;;;;;4972497;28;20236;-58
2021/06/06 07:51:33;;;;;;;1.60;0.85;;;24.20;41.20;;;;;;4971422;28;20208;-58
2021/06/06 07:53:59;;;;;;;0.70;0.70;;;24.30;41.20;;;;;;4970707;28;20204;-58
2021/06/06 07:56:25;;;;;;;1.30;0.70;;;24.20;41.10;;;;;;4971255;28;20259;-61
2021/06/06 07:58:51;;;;;;;1.13;0.75;;;24.20;41.20;;;;;;4970425;28;20604;-58
2021/06/06 08:01:17;;;;;;;1.15;0.70;;;24.20;41.10;;;;;;4971594;28;20211;-58
2021/06/06 08:03:43;;;;;;;7.47;1.33;;;24.30;40.90;;;;;;4969529;28;20208;-58
2021/06/06 08:06:09;;;;;;;2.05;0.88;;;24.30;41.60;;;;;;4965999;28;20212;-59
2021/06/06 08:08:35;;;;;;;1.40;0.70;;;24.30;41.50;;;;;;4965891;28;20278;-58
2021/06/06 08:11:01;;;;;;;6.65;0.95;;;24.30;41.70;;;;;;4958513;28;20775;-59
2021/06/06 08:13:27;;;;;;;1.17;0.93;;;24.30;43.00;;;;;;4963621;28;20291;-58
2021/06/06 08:15:53;;;;;;;3.63;2.05;;;24.30;42.40;;;;;;4970261;28;20208;-57
2021/06/06 08:18:19;;;;;;;1.52;0.80;;;24.30;42.30;;;;;;4951927;29;20225;-59
2021/06/06 08:20:45;;;;;;;0.85;0.85;;;23.10;44.50;;;;;;4967360;28;20204;-57
2021/06/06 08:23:11;;;;;;;0.70;0.70;;;21.90;46.80;;;;;;4969262;28;20573;-59
2021/06/06 08:25:37;;;;;;;0.70;0.70;;;21.50;47.60;;;;;;4960813;28;20275;-58
2021/06/06 08:28:03;;;;;;;2.85;0.98;;;22.20;46.70;;;;;;4964836;28;20228;-58
2021/06/06 08:30:29;;;;;;;1.02;0.77;;;22.80;45.00;;;;;;4969184;28;20232;-56
2021/06/06 08:32:55;;;;;;;0.88;0.88;;;23.20;44.20;;;;;;4971058;28;20650;-52
2021/06/06 08:35:21;;;;;;;1.55;0.80;;;23.50;43.50;;;;;;4970948;28;20212;-48
2021/06/06 08:37:47;;;;;;;0.77;0.77;;;23.60;42.90;;;;;;4968393;28;20318;-51
2021/06/06 08:40:13;;;;;;;0.88;0.73;;;23.80;42.80;;;;;;4966964;28;20621;-55
2021/06/06 08:42:39;;;;;;;0.82;0.70;;;23.90;42.30;;;;;;4957618;28;20205;-57
2021/06/06 08:45:05;;;;;;;0.95;0.95;;;23.90;42.00;;;;;;4962198;28;20231;-57
2021/06/06 08:47:31;;;;;;;1.10;1.00;;;24.00;42.10;;;;;;4971063;28;20744;-50
2021/06/06 08:49:57;;;;;;;1.30;0.82;;;24.00;41.90;;;;;;4975124;28;20235;-49
2021/06/06 08:52:23;;;;;;;1.10;0.70;;;24.00;41.70;;;;;;4973540;28;20227;-53
2021/06/06 08:54:49;;;;;;;1.40;0.80;;;24.00;41.70;;;;;;4974872;28;20211;-51
2021/06/06 08:57:15;;;;;;;0.90;0.90;;;24.10;42.00;;;;;;4973489;28;20228;-52
2021/06/06 08:59:42;;;;;;;0.73;0.73;;;24.10;42.00;;;;;;4974311;28;20209;-53
2021/06/06 09:02:08;;;;;;;1.15;0.77;;;24.10;42.10;;;;;;4972215;28;20299;-55
2021/06/06 09:04:34;;;;;;;1.23;0.90;;;24.10;42.30;;;;;;4974218;28;20653;-55
2021/06/06 09:07:00;;;;;;;0.95;0.70;;;24.10;42.50;;;;;;4972053;28;20221;-53
2021/06/06 09:09:26;;;;;;;2.08;0.82;;;24.20;42.80;;;;;;4973114;28;20228;-50
2021/06/06 09:11:52;;;;;;;0.93;0.70;;;24.10;42.70;;;;;;4973675;28;20235;-48
2021/06/06 09:14:18;;;;;;;1.83;0.70;;;24.10;42.30;;;;;;4972855;28;20200;-51
2021/06/06 09:16:44;;;;;;;1.58;0.80;;;24.20;43.10;;;;;;4972989;28;20204;-55
2021/06/06 09:19:10;;;;;;;1.50;0.80;;;24.20;43.10;;;;;;4972938;28;20208;-52
2021/06/06 09:21:36;;;;;;;1.08;0.80;;;24.20;43.10;;;;;;4969230;28;20564;-55
2021/06/06 09:24:02;;;;;;;1.52;1.02;;;24.20;42.30;;;;;;4969382;28;20224;-59
2021/06/06 09:26:28;;;;;;;2.85;0.90;;;24.20;42.80;;;;;;4964564;28;20673;-54
2021/06/06 09:28:54;;;;;;;1.13;0.80;;;24.30;43.00;;;;;;4972102;28;20209;-58
2021/06/06 09:31:20;;;;;;;1.40;0.80;;;24.30;42.80;;;;;;4959162;28;20252;-60
2021/06/06 09:33:46;;;;;;;1.02;1.00;;;24.30;42.40;;;;;;4970587;28;20684;-58
2021/06/06 09:36:12;;;;;;;1.58;0.98;;;24.30;42.30;;;;;;4973442;28;20212;-54
2021/06/06 09:38:38;;;;;;;1.63;0.80;;;24.20;42.00;;;;;;4973140;28;20232;-58
2021/06/06 09:41:04;;;;;;;2.40;0.90;;;24.20;42.10;;;;;;4972465;28;20707;-53
2021/06/06 09:43:30;;;;;;;1.17;0.80;;;24.20;41.90;;;;;;4971044;28;20208;-59
2021/06/06 09:45:56;;;;;;;2.25;0.93;;;24.30;42.80;;;;;;4965371;28;20205;-59
2021/06/06 09:48:22;;;;;;;1.58;0.90;;;24.30;42.60;;;;;;4965533;28;20798;-58
2021/06/06 09:50:48;;;;;;;0.70;0.70;;;24.40;42.80;;;;;;4971595;28;20228;-50
2021/06/06 09:53:14;;;;;;;1.13;1.13;;;24.40;42.40;;;;;;4968811;28;20568;-55
2021/06/06 09:55:41;;;;;;;1.85;0.73;;;24.40;42.20;;;;;;4971863;28;20212;-57
2021/06/06 09:58:07;;;;;;;0.98;0.80;;;24.40;42.80;;;;;;4969734;28;20303;-57
2021/06/06 10:00:32;;;;;;;1.23;0.70;;;24.40;42.30;;;;;;4953668;29;20201;-54
2021/06/06 10:02:58;;;;;;;2.25;0.80;;;24.30;43.10;;;;;;4967111;28;20197;-58
2021/06/06 10:05:24;;;;;;;0.70;0.70;;;24.30;42.40;;;;;;4970990;28;20215;-53
2021/06/06 10:07:50;;;;;;;1.17;1.02;;;24.30;42.20;;;;;;4970487;28;20225;-55
2021/06/06 10:10:17;;;;;;;0.63;0.63;;;24.30;41.80;;;;;;4972842;28;20235;-55
2021/06/06 10:12:43;;;;;;;1.08;0.80;;;24.30;41.70;;;;;;4971960;28;20359;-56
2021/06/06 10:15:09;;;;;;;0.90;0.70;;;24.30;41.60;;;;;;4967082;28;20212;-55
2021/06/06 10:17:35;;;;;;;0.60;0.60;;;24.40;41.60;;;;;;4968730;28;20236;-52
2021/06/06 10:20:01;;;;;;;0.70;0.70;;;24.40;41.70;;;;;;4971592;28;20204;-54
2021/06/06 10:22:27;;;;;;;0.73;0.70;;;24.40;41.70;;;;;;4963920;28;20205;-52
2021/06/06 10:24:57;;;;;;;2.15;0.73;;;24.40;41.60;;;;;;4970950;28;20922;-58
2021/06/06 10:27:23;;;;;;;1.00;0.75;;;24.40;41.50;;;;;;4969352;28;20233;-50
2021/06/06 10:29:49;;;;;;;1.00;0.80;;;24.40;41.70;;;;;;4953205;29;20268;-55
2021/06/06 10:32:15;;;;;;;3.15;0.75;;;24.40;42.60;;;;;;4968634;28;20665;-55
2021/06/06 10:34:41;;;;;;;0.80;0.73;;;24.40;43.30;;;;;;4969953;28;20312;-53
2021/06/06 10:37:07;;;;;;;1.13;0.88;;;24.40;43.10;;;;;;4966564;28;20316;-51
2021/06/06 10:39:33;;;;;;;0.70;0.70;;;24.40;42.80;;;;;;4966187;28;20208;-57
2021/06/06 10:41:59;;;;;;;0.80;0.80;;;24.40;42.80;;;;;;4969204;28;20201;-57
2021/06/06 10:44:25;;;;;;;0.80;0.80;;;24.40;43.20;;;;;;4970094;28;20200;-55
2021/06/06 10:46:51;;;;;;;1.80;0.77;;;24.40;42.40;;;;;;4970382;28;20233;-54
2021/06/06 10:49:17;;;;;;;0.80;0.80;;;24.40;42.20;;;;;;4971864;28;20283;-55
2021/06/06 10:51:43;;;;;;;2.08;0.85;;;24.40;42.40;;;;;;4970835;28;20615;-53
2021/06/06 10:54:09;;;;;;;1.15;0.80;;;24.40;42.30;;;;;;4972635;28;20196;-55
2021/06/06 10:56:35;;;;;;;1.75;0.80;;;24.40;42.30;;;;;;4971313;28;20240;-51
2021/06/06 10:59:03;;;;;;;2.50;1.63;;;24.40;43.30;;;;;;4969960;28;20680;-55
2021/06/06 11:01:29;;;;;;;1.73;0.95;;;24.40;43.30;;;;;;4967542;28;20259;-52
2021/06/06 11:03:55;;;;;;;1.08;0.70;;;24.40;43.30;;;;;;4965914;28;20204;-50
2021/06/06 11:06:21;;;;;;;1.65;0.98;;;24.40;42.90;;;;;;4963961;28;20568;-54
2021/06/06 11:08:47;;;;;;;1.00;0.82;;;24.40;42.90;;;;;;4971873;28;20204;-56
2021/06/06 11:11:13;;;;;;;1.83;0.90;;;24.40;43.30;;;;;;4971873;28;20317;-53
2021/06/06 11:13:39;;;;;;;1.52;0.75;;;24.30;43.20;;;;;;4971941;28;20203;-55
2021/06/06 11:16:05;;;;;;;2.10;1.00;;;24.30;43.20;;;;;;4971446;28;20212;-50
2021/06/06 11:18:31;;;;;;;1.60;1.13;;;24.30;43.20;;;;;;4972243;28;20233;-54
2021/06/06 11:20:59;;;;;;;1.40;1.00;;;24.30;43.20;;;;;;4972699;28;20215;-52
2021/06/06 11:23:25;;;;;;;0.90;0.90;;;24.30;43.20;;;;;;4972168;28;20204;-52
2021/06/06 11:25:51;;;;;;;1.15;0.90;;;24.30;43.20;;;;;;4972272;28;20216;-60
2021/06/06 11:28:17;;;;;;;3.55;1.02;;;24.30;44.30;;;;;;4965085;28;20262;-49
2021/06/06 11:30:43;;;;;;;0.95;0.85;;;24.30;44.30;;;;;;4971101;28;20307;-41
2021/06/06 11:33:09;;;;;;;1.42;0.80;;;24.30;44.30;;;;;;4970956;28;20242;-53
2021/06/06 11:35:35;;;;;;;1.35;1.00;;;24.30;43.20;;;;;;4970494;28;20239;-50
2021/06/06 11:38:01;;;;;;;1.80;0.90;;;24.30;43.20;;;;;;4971146;28;20671;-55
2021/06/06 11:40:27;;;;;;;1.90;1.10;;;24.40;42.60;;;;;;4970804;28;20293;-54
2021/06/06 11:42:53;;;;;;;0.70;0.70;;;24.30;42.20;;;;;;4971138;28;20257;-52
2021/06/06 11:45:19;;;;;;;1.35;0.80;;;24.40;42.10;;;;;;4972339;28;20826;-51
2021/06/06 11:47:45;;;;;;;1.33;0.93;;;24.40;42.10;;;;;;4970322;28;20304;-50
2021/06/06 11:50:12;;;;;;;0.75;0.75;;;24.40;42.10;;;;;;4970925;28;20232;-51
2021/06/06 11:52:38;;;;;;;0.80;0.80;;;24.40;41.90;;;;;;4970771;28;20209;-53
2021/06/06 11:55:04;;;;;;;1.15;0.85;;;24.40;41.90;;;;;;4968064;28;20223;-48
2021/06/06 11:57:30;;;;;;;2.05;1.00;;;24.40;41.80;;;;;;4969808;28;20225;-48
2021/06/06 11:59:56;;;;;;;1.20;0.70;;;24.40;41.90;;;;;;4969602;28;20212;-53
2021/06/06 12:02:22;;;;;;;1.38;1.00;;;24.40;42.00;;;;;;4969548;28;20288;-54
2021/06/06 12:04:48;;;;;;;3.20;1.10;;;24.50;43.20;;;;;;4971380;28;20204;-53
2021/06/06 12:07:14;;;;;;;1.75;1.10;;;24.50;43.40;;;;;;4968145;28;20255;-58
2021/06/06 12:09:40;;;;;;;4.18;1.20;;;24.50;43.70;;;;;;4970619;28;20236;-56
2021/06/06 12:12:06;;;;;;;1.63;1.05;;;24.50;44.20;;;;;;4969859;28;20201;-54
2021/06/06 12:14:33;;;;;;;2.28;1.17;;;24.60;44.00;;;;;;4969251;28;20232;-48
2021/06/06 12:16:59;;;;;;;3.95;1.98;;;24.60;43.90;;;;;;4969958;28;20220;-48
2021/06/06 12:19:25;;;;;;;4.75;2.30;;;24.70;44.40;;;;;;4970105;28;20244;-45
2021/06/06 12:21:51;;;;;;;5.82;2.72;;;24.70;44.60;;;;;;4971966;28;20200;-53
2021/06/06 12:24:18;;;;;;;15.38;5.53;;;24.70;43.90;;;;;;4973925;28;20212;-53
2021/06/06 12:26:44;;;;;;;19.30;6.40;;;24.70;44.40;;;;;;4974111;28;20708;-47
2021/06/06 12:29:10;;;;;;;14.40;5.07;;;24.80;44.70;;;;;;4972524;28;20223;-46
2021/06/06 12:31:36;;;;;;;16.65;5.90;;;24.80;44.50;;;;;;4974431;28;20205;-51
2021/06/06 12:34:02;;;;;;;16.55;6.60;;;24.80;44.60;;;;;;4973814;28;20196;-56
2021/06/06 12:36:28;;;;;;;13.80;5.20;;;24.80;45.00;;;;;;4973507;28;20287;-54
2021/06/06 12:38:54;;;;;;;14.50;5.70;;;24.80;45.20;;;;;;4974720;28;20567;-51